Airfield :







YOU CAN JOIN US ON...

 
LOGIN :

Register | Disclaimer

   EN    FR    IT 

 









Legend :    VFR   Marginal VFR   IFR   Intensive IFR   Very Intensive IFR
Visi :
Ceiling :
>= 8 km
>= 3000ft
5 to 8 km
1000 to 3000 ft
1500m to 5 km
500 to 1000 ft
800 to 1500m
200 to 500 ft
< 800m
< 200 ft
Symbols :   Thunderstorms  Fog  Heavy snow  Heavy precipitations  Wind > 20 kt






- Airport Elevation : 171 ft
- IATA code : KEF


BIKF - Keflavik International

CURRENT METAR :
  • 190300Z 10027KT 9999 DZRA BKN015 OVC060 05/02 Q1000

EXPIRED METARs :
  • 190230Z 10028KT 9999 -RA FEW013 BKN020 OVC060 05/03 Q1000
  • 190200Z 11028G39KT 9999 -DZRA FEW013 BKN020 OVC060 06/02 Q1001
  • 190130Z 11028G39KT 9999 -RA FEW013 BKN018 OVC045 05/02 Q1001
  • 190100Z 11027KT 9999 -RA SCT013 BKN018 OVC045 05/02 Q1001
  • 190030Z 11028KT 9999 -RA FEW009 BKN015 OVC025 05/02 Q1001

TAF TAF BIKF
Valid from the 19 at 03:00 until the 20 at 03:00 UTC


190104Z 1903/2003 11030G45KT 9999 -RA BKN015 OVC025 TX06/1903Z TN03/1921Z
BECMG 1912/1914 10022G32KT



MET'MAP, your aeronautical weather chart ! - Copyright ORBIFLY December 2007 - Disclaimer

ORBIFLY MET'MAP TEAM :

Programming & Development : Alexandra Zaïnal
Concept & Development : Baudouin d'Aumeries
Co-Development & Prog : Marc-Olivier Méhu
Technical & hardware support : Manuel Goepfert

Contact : metmap@orbifly.com




SOURCES & CREDITS :

   NOAA